createdAt,value
2019-04-23T00:00:13.972Z,10.70
2019-04-23T00:03:06.894Z,13.05
2019-04-23T00:05:41.708Z,11.43
2019-04-23T00:08:11.405Z,12.63
2019-04-23T00:10:36.734Z,12.28
2019-04-23T00:13:09.074Z,10.53
2019-04-23T00:15:58.800Z,14.30
2019-04-23T00:18:35.262Z,12.98
2019-04-23T00:20:57.391Z,12.90
2019-04-23T00:23:25.566Z,12.25
2019-04-23T00:26:02.692Z,14.58
2019-04-23T00:28:38.966Z,12.40
2019-04-23T00:33:37.315Z,12.98
2019-04-23T00:36:10.764Z,11.45
2019-04-23T00:38:38.405Z,10.58
2019-04-23T00:41:10.923Z,13.32
2019-04-23T00:43:42.870Z,14.30
2019-04-23T00:46:28.874Z,14.63
2019-04-23T00:51:10.006Z,12.75
2019-04-23T00:53:43.760Z,12.88
2019-04-23T00:56:34.053Z,13.83
2019-04-23T00:58:51.086Z,11.57
2019-04-23T01:01:18.051Z,11.90
2019-04-23T01:03:48.541Z,10.32
2019-04-23T01:06:21.066Z,12.30
2019-04-23T01:08:52.344Z,13.40
2019-04-23T01:11:20.523Z,13.10
2019-04-23T01:16:22.926Z,14.47
2019-04-23T01:18:54.174Z,13.85
2019-04-23T01:21:13.833Z,14.85
2019-04-23T01:24:02.719Z,13.98
2019-04-23T01:27:30.341Z,13.45
2019-04-23T01:29:42.875Z,12.30
2019-04-23T01:32:17.548Z,11.83
2019-04-23T01:34:51.953Z,15.75
2019-04-23T01:37:20.639Z,13.15
2019-04-23T01:39:52.434Z,14.18
2019-04-23T01:42:29.518Z,13.80
2019-04-23T01:47:26.326Z,16.15
2019-04-23T01:52:31.923Z,13.30
2019-04-23T01:57:30.720Z,13.78
2019-04-23T02:00:05.341Z,15.28
2019-04-23T02:02:41.158Z,12.73
2019-04-23T02:05:02.987Z,14.83
2019-04-23T02:07:38.783Z,14.30
2019-04-23T02:10:08.358Z,13.22
2019-04-23T02:12:38.351Z,14.58
2019-04-23T02:15:10.209Z,15.90
2019-04-23T02:17:37.933Z,9.90
2019-04-23T02:20:14.454Z,16.35
2019-04-23T02:23:06.214Z,12.63
2019-04-23T02:25:41.081Z,15.85
2019-04-23T02:28:06.104Z,17.30
2019-04-23T02:38:11.786Z,15.88
2019-04-23T02:40:47.069Z,15.00
2019-04-23T02:43:13.029Z,15.35
2019-04-23T02:45:48.505Z,14.50
2019-04-23T02:48:19.433Z,15.28
2019-04-23T03:01:06.473Z,11.35
2019-04-23T03:03:28.187Z,15.38
2019-04-23T03:05:57.252Z,14.45
2019-04-23T03:10:57.064Z,15.55
2019-04-23T03:16:29.436Z,15.25
2019-04-23T03:21:56.082Z,15.15
2019-04-23T03:39:40.214Z,13.75
2019-04-23T03:42:02.675Z,15.90
2019-04-23T03:47:04.264Z,15.13
2019-04-23T03:49:48.595Z,12.98
2019-04-23T03:52:15.333Z,15.28
2019-04-23T03:54:44.580Z,13.53
2019-04-23T03:57:17.012Z,14.90
2019-04-23T03:59:44.826Z,14.23
2019-04-23T04:02:20.596Z,15.00
2019-04-23T04:04:36.549Z,14.87
2019-04-23T04:12:21.007Z,14.43
2019-04-23T04:14:44.979Z,12.68
2019-04-23T04:17:13.807Z,12.47
2019-04-23T04:24:48.687Z,11.95
2019-04-23T04:29:54.913Z,13.55
2019-04-23T04:32:43.215Z,13.80
2019-04-23T04:35:12.902Z,10.08
2019-04-23T04:42:14.792Z,13.45
2019-04-23T04:45:04.108Z,14.78
2019-04-23T04:47:41.748Z,14.58
2019-04-23T04:52:48.643Z,10.78
2019-04-23T04:55:00.043Z,14.23
2019-04-23T05:07:40.517Z,12.10
2019-04-23T05:10:23.956Z,11.00
2019-04-23T05:12:38.956Z,11.75
2019-04-23T05:17:51.797Z,13.00
2019-04-23T05:23:06.055Z,12.47
2019-04-23T05:25:12.409Z,12.53
2019-04-23T05:27:55.237Z,13.30
2019-04-23T05:30:23.314Z,11.68
2019-04-23T05:32:51.894Z,13.20
2019-04-23T05:40:30.748Z,12.63
2019-04-23T05:42:54.788Z,11.00
2019-04-23T05:45:21.612Z,11.80
2019-04-23T05:47:58.619Z,11.70
2019-04-23T05:50:38.739Z,12.60
2019-04-23T05:52:59.245Z,12.28
2019-04-23T05:55:32.354Z,12.37
2019-04-23T05:58:00.850Z,12.68
2019-04-23T06:00:34.791Z,10.90
2019-04-23T06:03:09.855Z,11.88
2019-04-23T06:05:37.108Z,11.12
2019-04-23T06:08:03.463Z,11.65
2019-04-23T06:10:34.055Z,10.60
2019-04-23T06:13:06.342Z,9.15
2019-04-23T06:15:36.989Z,12.75
2019-04-23T06:18:10.103Z,12.10
2019-04-23T06:20:42.561Z,11.48
2019-04-23T06:23:18.166Z,11.93
2019-04-23T06:28:17.959Z,9.80
2019-04-23T06:30:49.016Z,11.50
2019-04-23T06:35:45.480Z,10.18
2019-04-23T06:40:46.946Z,10.72
2019-04-23T06:43:28.517Z,11.75
2019-04-23T06:45:49.748Z,11.45
2019-04-23T06:50:58.116Z,10.50
2019-04-23T06:53:27.120Z,11.80
2019-04-23T06:55:58.649Z,11.30
2019-04-23T06:58:32.671Z,10.25
2019-04-23T07:01:03.327Z,11.15
2019-04-23T07:06:19.170Z,9.13
2019-04-23T07:08:56.311Z,10.35
2019-04-23T07:11:17.140Z,10.53
2019-04-23T07:16:12.716Z,9.95
2019-04-23T07:18:43.508Z,10.38
2019-04-23T07:23:53.584Z,8.95
2019-04-23T07:26:30.371Z,10.68
2019-04-23T07:36:27.584Z,10.43
2019-04-23T07:39:01.874Z,10.82
2019-04-23T07:44:33.478Z,9.33
2019-04-23T07:47:24.806Z,9.15
2019-04-23T07:50:09.727Z,10.10
2019-04-23T07:55:02.182Z,9.35
2019-04-23T07:57:29.290Z,10.45
2019-04-23T08:00:00.705Z,9.35
2019-04-23T08:02:30.175Z,9.60
2019-04-23T08:07:37.798Z,9.20
2019-04-23T08:10:12.365Z,9.13
2019-04-23T08:15:13.297Z,7.50
2019-04-23T08:17:37.514Z,7.65
2019-04-23T08:20:07.875Z,8.85
2019-04-23T08:22:44.204Z,8.98
2019-04-23T08:25:45.818Z,7.78
2019-04-23T08:28:13.435Z,10.03
2019-04-23T08:30:45.380Z,8.60
2019-04-23T08:33:10.934Z,8.50
2019-04-23T08:35:53.644Z,7.20
2019-04-23T08:40:57.502Z,8.43
2019-04-23T08:46:26.742Z,9.95
2019-04-23T08:49:00.402Z,9.85
2019-04-23T08:51:39.878Z,8.80
2019-04-23T08:54:01.416Z,8.80
2019-04-23T08:58:59.312Z,7.67
2019-04-23T09:01:39.615Z,7.80
2019-04-23T09:03:55.994Z,7.47
2019-04-23T09:06:29.810Z,7.78
2019-04-23T09:08:56.956Z,5.78
2019-04-23T09:11:41.676Z,7.45
2019-04-23T09:16:35.965Z,8.13
2019-04-23T09:19:11.123Z,8.35
2019-04-23T09:21:40.334Z,8.45
2019-04-23T09:24:03.441Z,7.53
2019-04-23T09:26:41.512Z,8.50
2019-04-23T09:29:14.867Z,7.67
2019-04-23T09:35:05.961Z,8.13
2019-04-23T09:37:59.645Z,7.70
2019-04-23T09:41:13.033Z,8.83
2019-04-23T09:43:31.565Z,8.63
2019-04-23T09:46:53.102Z,6.80
2019-04-23T09:51:49.325Z,7.40
2019-04-23T09:54:10.635Z,7.90
2019-04-23T09:56:41.467Z,7.00
2019-04-23T09:59:15.466Z,7.50
2019-04-23T10:01:41.337Z,7.73
2019-04-23T10:03:57.736Z,7.40
2019-04-23T10:06:23.323Z,9.57
2019-04-23T10:08:53.532Z,8.50
2019-04-23T10:11:19.963Z,7.60
2019-04-23T10:13:50.349Z,7.70
2019-04-23T10:16:22.018Z,6.63
2019-04-23T10:18:51.044Z,7.60
2019-04-23T10:21:21.467Z,8.83
2019-04-23T10:23:51.647Z,8.30
2019-04-23T10:26:21.845Z,7.97
2019-04-23T10:29:02.105Z,7.93
2019-04-23T10:31:31.740Z,8.30
2019-04-23T10:34:02.088Z,6.47
2019-04-23T10:36:32.540Z,6.83
2019-04-23T10:39:09.620Z,8.43
2019-04-23T10:41:35.836Z,7.80
2019-04-23T10:44:25.474Z,7.97
2019-04-23T10:47:43.559Z,10.10
2019-04-23T10:50:37.558Z,8.10
2019-04-23T10:53:10.112Z,9.03
2019-04-23T10:55:39.703Z,8.23
2019-04-23T10:58:02.772Z,8.10
2019-04-23T11:00:36.103Z,9.03
2019-04-23T11:03:28.139Z,8.83
2019-04-23T11:08:03.532Z,8.80
2019-04-23T11:10:42.980Z,7.33
2019-04-23T11:13:24.013Z,5.60
2019-04-23T11:16:11.010Z,7.90
2019-04-23T11:18:24.644Z,9.13
2019-04-23T11:20:48.022Z,7.20
2019-04-23T11:23:23.539Z,6.67
2019-04-23T11:25:48.643Z,6.20
2019-04-23T11:31:19.955Z,7.00
2019-04-23T11:33:43.037Z,7.90
2019-04-23T11:38:54.729Z,7.80
2019-04-23T11:41:23.481Z,8.07
2019-04-23T11:46:39.890Z,9.60
2019-04-23T11:49:22.521Z,8.43
2019-04-23T11:53:50.433Z,8.60
2019-04-23T11:56:35.547Z,7.37
2019-04-23T11:58:47.600Z,8.23
2019-04-23T12:01:49.226Z,8.47
2019-04-23T12:04:48.029Z,7.97
2019-04-23T12:12:23.841Z,8.57
2019-04-23T12:17:26.358Z,7.63
2019-04-23T12:20:12.298Z,8.97
2019-04-23T12:30:06.109Z,8.13
2019-04-23T12:35:03.756Z,7.70
2019-04-23T12:38:22.127Z,8.70
2019-04-23T12:43:02.702Z,8.23
2019-04-23T12:48:08.190Z,7.03
2019-04-23T12:53:07.034Z,7.30
2019-04-23T12:58:09.974Z,10.00
2019-04-23T13:00:35.818Z,8.70
2019-04-23T13:03:02.745Z,10.30
2019-04-23T13:05:31.862Z,9.00
2019-04-23T13:08:08.642Z,9.40
2019-04-23T13:15:40.831Z,9.90
2019-04-23T13:18:12.429Z,10.27
2019-04-23T13:20:38.559Z,9.13
2019-04-23T13:23:16.798Z,9.83
2019-04-23T13:25:57.462Z,10.50
2019-04-23T13:28:35.223Z,9.50
2019-04-23T13:31:08.451Z,9.90
2019-04-23T13:41:17.269Z,10.47
2019-04-23T13:46:13.871Z,8.30
2019-04-23T13:48:40.252Z,9.30
2019-04-23T13:53:49.611Z,9.83
2019-04-23T13:58:51.053Z,9.17
2019-04-23T14:04:04.077Z,10.03
2019-04-23T14:06:29.415Z,10.40
2019-04-23T14:13:55.176Z,11.60
2019-04-23T14:16:33.948Z,10.63
2019-04-23T14:19:02.565Z,10.90
2019-04-23T14:21:34.598Z,9.23
2019-04-23T14:24:18.212Z,10.30
2019-04-23T14:26:39.969Z,10.40
2019-04-23T14:29:01.250Z,11.00
2019-04-23T14:31:28.328Z,10.20
2019-04-23T14:34:04.568Z,10.10
2019-04-23T14:36:37.677Z,9.80
2019-04-23T14:39:05.912Z,10.80
2019-04-23T14:41:38.763Z,10.57
2019-04-23T14:44:12.943Z,10.57
2019-04-23T14:49:19.285Z,11.07
2019-04-23T14:52:00.270Z,11.03
2019-04-23T14:54:35.976Z,10.80
2019-04-23T14:57:07.888Z,10.43
2019-04-23T14:59:19.799Z,10.97
2019-04-23T15:04:34.047Z,10.80
2019-04-23T15:07:10.862Z,11.47
2019-04-23T15:09:37.416Z,11.67
2019-04-23T15:12:20.527Z,11.80
2019-04-23T15:14:48.984Z,11.70
2019-04-23T15:17:05.775Z,12.10
2019-04-23T15:19:47.823Z,12.10
2019-04-23T15:24:55.992Z,11.70
2019-04-23T15:29:42.666Z,10.30
2019-04-23T15:32:26.928Z,12.63
2019-04-23T15:35:00.989Z,11.47
2019-04-23T15:37:41.382Z,12.70
2019-04-23T15:42:26.528Z,12.57
2019-04-23T15:45:09.606Z,12.07
2019-04-23T15:50:10.868Z,13.00
2019-04-23T15:52:41.336Z,12.80
2019-04-23T15:55:14.727Z,13.30
2019-04-23T15:58:00.937Z,13.70
2019-04-23T15:59:58.904Z,12.70
2019-04-23T16:02:04.969Z,11.53
2019-04-23T16:04:35.627Z,12.30
2019-04-23T16:07:07.304Z,13.07
2019-04-23T16:10:09.216Z,14.17
2019-04-23T16:12:31.597Z,12.87
2019-04-23T16:15:11.448Z,13.20
2019-04-23T16:17:37.126Z,13.70
2019-04-23T16:22:48.664Z,13.23
2019-04-23T16:25:17.911Z,12.00
2019-04-23T16:27:56.252Z,10.93
2019-04-23T16:30:36.800Z,14.00
2019-04-23T16:41:00.759Z,14.43
2019-04-23T16:43:44.561Z,14.27
2019-04-23T16:46:03.151Z,15.40
2019-04-23T16:48:41.613Z,13.20
2019-04-23T16:53:31.435Z,15.40
2019-04-23T16:58:48.859Z,14.63
2019-04-23T17:01:08.447Z,14.07
2019-04-23T17:06:10.756Z,15.07
2019-04-23T17:11:16.131Z,16.42
2019-04-23T17:13:37.635Z,15.78
2019-04-23T17:16:15.266Z,16.65
2019-04-23T17:21:14.682Z,16.90
2019-04-23T17:23:52.294Z,16.10
2019-04-23T17:26:23.960Z,15.70
2019-04-23T17:28:44.195Z,16.50
2019-04-23T17:31:34.525Z,16.00
2019-04-23T17:33:48.147Z,15.80
2019-04-23T17:39:16.246Z,16.23
2019-04-23T17:42:27.419Z,17.42
2019-04-23T17:45:01.958Z,17.90
2019-04-23T17:47:28.569Z,17.62
2019-04-23T17:50:10.767Z,15.10
2019-04-23T17:52:29.537Z,14.30
2019-04-23T17:55:07.728Z,14.87
2019-04-23T17:57:29.644Z,17.70
2019-04-23T18:00:15.991Z,17.05
2019-04-23T18:02:55.930Z,13.48
2019-04-23T18:05:06.313Z,17.65
2019-04-23T18:07:43.793Z,16.40
2019-04-23T18:10:17.900Z,16.83
2019-04-23T18:15:06.442Z,15.28
2019-04-23T18:17:41.056Z,17.10
2019-04-23T18:20:16.673Z,15.07
2019-04-23T18:22:53.679Z,17.60
2019-04-23T18:25:25.837Z,16.35
2019-04-23T18:27:54.525Z,16.57
2019-04-23T18:30:50.056Z,17.00
2019-04-23T18:38:13.633Z,17.05
2019-04-23T18:43:21.141Z,17.00
2019-04-23T18:45:59.447Z,16.17
2019-04-23T18:51:03.514Z,16.83
2019-04-23T18:56:06.541Z,18.13
2019-04-23T18:58:52.511Z,15.70
2019-04-23T19:06:48.562Z,15.13
2019-04-23T19:10:04.267Z,16.77
2019-04-23T19:12:31.427Z,17.37
2019-04-23T19:14:58.194Z,16.20
2019-04-23T19:20:04.338Z,16.30
2019-04-23T19:22:42.846Z,16.50
2019-04-23T19:25:01.173Z,15.20
2019-04-23T19:27:34.209Z,15.93
2019-04-23T19:30:22.375Z,15.40
2019-04-23T19:32:48.953Z,16.70
2019-04-23T19:35:40.157Z,17.10
2019-04-23T19:38:05.819Z,15.90
2019-04-23T19:40:28.527Z,15.63
2019-04-23T19:42:55.237Z,17.13
2019-04-23T19:45:28.547Z,16.43
2019-04-23T19:48:00.154Z,16.80
2019-04-23T19:50:32.908Z,16.70
2019-04-23T19:55:35.316Z,15.30
2019-04-23T19:58:08.521Z,14.13
2019-04-23T20:00:52.080Z,13.07
2019-04-23T20:05:41.541Z,13.63
2019-04-23T20:10:42.669Z,10.43
2019-04-23T20:13:13.387Z,11.00
2019-04-23T20:15:53.579Z,9.73
2019-04-23T20:18:13.355Z,10.37
2019-04-23T20:23:24.385Z,9.47
2019-04-23T20:28:41.218Z,9.47
2019-04-23T20:31:16.416Z,9.60
2019-04-23T20:33:55.432Z,10.70
2019-04-23T20:36:25.301Z,9.97
2019-04-23T20:38:57.789Z,7.73
2019-04-23T20:41:21.492Z,8.27
2019-04-23T20:43:55.848Z,9.80
2019-04-23T20:46:25.996Z,6.87
2019-04-23T20:51:24.171Z,7.20
2019-04-23T20:53:57.323Z,7.80
2019-04-23T20:56:25.563Z,7.53
2019-04-23T20:58:59.711Z,6.50
2019-04-23T21:01:37.054Z,9.00
2019-04-23T21:04:00.091Z,8.00
2019-04-23T21:06:37.880Z,7.73
2019-04-23T21:09:33.252Z,8.00
2019-04-23T21:14:22.648Z,7.80
2019-04-23T21:16:47.097Z,7.72
2019-04-23T21:19:15.127Z,6.97
2019-04-23T21:22:04.567Z,7.07
2019-04-23T21:24:39.344Z,6.57
2019-04-23T21:27:46.560Z,6.90
2019-04-23T21:30:00.640Z,7.37
2019-04-23T21:32:33.257Z,7.47
2019-04-23T21:35:07.893Z,6.43
2019-04-23T21:38:20.246Z,6.72
2019-04-23T21:43:47.384Z,6.35
2019-04-23T21:48:55.882Z,5.62
2019-04-23T21:53:42.095Z,6.45
2019-04-23T21:56:15.170Z,5.55
2019-04-23T22:06:22.280Z,6.67
2019-04-23T22:11:43.990Z,6.55
2019-04-23T22:16:37.077Z,6.03
2019-04-23T22:24:02.725Z,7.53
2019-04-23T22:26:38.161Z,5.95
2019-04-23T22:31:37.809Z,6.03
2019-04-23T22:36:37.011Z,6.25
2019-04-23T22:39:03.179Z,6.17
2019-04-23T22:41:43.692Z,6.15
2019-04-23T22:44:12.107Z,5.97
2019-04-23T22:46:56.362Z,5.83
2019-04-23T22:49:30.875Z,5.97
2019-04-23T22:54:14.075Z,6.03
2019-04-23T22:56:50.111Z,5.55
2019-04-23T22:59:37.872Z,6.65
2019-04-23T23:01:56.954Z,5.05
2019-04-23T23:04:22.689Z,5.25
2019-04-23T23:09:27.398Z,5.33
2019-04-23T23:11:53.957Z,5.37
2019-04-23T23:14:27.646Z,5.80
2019-04-23T23:16:58.425Z,5.15
2019-04-23T23:19:31.662Z,4.75
2019-04-23T23:22:02.179Z,5.25
2019-04-23T23:24:30.822Z,4.62
2019-04-23T23:27:02.339Z,4.55
2019-04-23T23:29:32.314Z,4.87
2019-04-23T23:32:11.113Z,4.28
2019-04-23T23:34:43.483Z,5.12
2019-04-23T23:39:47.756Z,4.90
2019-04-23T23:42:11.090Z,5.05
2019-04-23T23:47:18.228Z,5.37
2019-04-23T23:49:43.959Z,4.95
2019-04-23T23:52:15.890Z,4.90
2019-04-23T23:54:50.111Z,4.90
